Perla, Arkansas
Current Conditions -  °F | °C
As of 9:53 AM on Sunday 21 Dec 2014 (Local Time) from KHOT Reporting Station
Overcast Overcast  
Wind Chill: 37°   Ceiling: 5000
Heat Index: 41°   Visibility: 7mi
Dew Point: 36°   Wind: 6mph
Humidity: 82%   Direction: 120°ESE
Pressure: 30.17"   Gusts: NA
Location:  34.3189°N, 92.8629°W
Report Text: KHOT 211553Z AUTO 12005KT 7SM FEW035 OVC050 05/02 A3017 RMK AO2 SLP217 T00500022
Loading
Personal Weather Stations






























Interactive Weather Map New forecast layout! Learn more

10-Day Weather Forecast

Advertisements
Track Severe Weather on mobile